createdAt,value
2022-12-05T00:00:39.864Z,6.93
2022-12-05T00:03:12.605Z,7.47
2022-12-05T00:05:45.358Z,7.45
2022-12-05T00:08:18.417Z,7.05
2022-12-05T00:10:52.929Z,6.97
2022-12-05T00:13:25.871Z,7.28
2022-12-05T00:15:58.704Z,7.65
2022-12-05T00:18:31.426Z,6.78
2022-12-05T00:21:05.051Z,8.13
2022-12-05T00:23:37.780Z,7.38
2022-12-05T00:26:12.925Z,6.82
2022-12-05T00:28:45.907Z,6.72
2022-12-05T00:31:20.491Z,6.85
2022-12-05T00:33:54.373Z,6.68
2022-12-05T00:36:29.112Z,8.00
2022-12-05T00:39:03.931Z,7.47
2022-12-05T00:41:38.288Z,7.03
2022-12-05T00:44:12.952Z,7.38
2022-12-05T00:46:45.745Z,7.88
2022-12-05T00:49:18.493Z,8.10
2022-12-05T00:51:51.342Z,7.18
2022-12-05T00:54:24.160Z,7.90
2022-12-05T00:56:58.527Z,8.15
2022-12-05T00:59:31.273Z,7.30
2022-12-05T01:02:04.202Z,7.38
2022-12-05T01:04:37.684Z,6.88
2022-12-05T01:07:11.210Z,7.22
2022-12-05T01:09:43.958Z,6.55
2022-12-05T01:12:18.288Z,7.10
2022-12-05T01:14:51.068Z,6.97
2022-12-05T01:17:23.994Z,6.70
2022-12-05T01:19:57.306Z,7.60
2022-12-05T01:22:30.243Z,7.22
2022-12-05T01:25:03.081Z,7.18
2022-12-05T01:27:37.602Z,6.50
2022-12-05T01:30:11.166Z,7.07
2022-12-05T01:32:44.201Z,7.07
2022-12-05T01:35:17.327Z,7.05
2022-12-05T01:37:50.317Z,7.10
2022-12-05T01:40:23.264Z,7.65
2022-12-05T01:42:58.501Z,7.00
2022-12-05T01:45:34.766Z,7.00
2022-12-05T01:48:11.723Z,7.53
2022-12-05T01:50:45.293Z,7.40
2022-12-05T01:53:19.242Z,7.22
2022-12-05T01:55:52.548Z,7.15
2022-12-05T01:58:33.321Z,6.90
2022-12-05T02:01:06.375Z,6.78
2022-12-05T02:03:39.969Z,7.05
2022-12-05T02:06:14.690Z,7.97
2022-12-05T02:08:48.462Z,7.90
2022-12-05T02:11:22.574Z,7.20
2022-12-05T02:14:13.636Z,8.30
2022-12-05T02:16:55.079Z,6.87
2022-12-05T02:19:57.035Z,6.75
2022-12-05T02:22:59.856Z,7.13
2022-12-05T02:26:01.904Z,7.53
2022-12-05T02:28:52.338Z,6.88
2022-12-05T02:31:35.226Z,6.57
2022-12-05T02:34:14.318Z,6.40
2022-12-05T02:36:51.999Z,6.93
2022-12-05T02:39:32.145Z,6.85
2022-12-05T02:42:11.258Z,6.85
2022-12-05T02:44:48.964Z,6.72
2022-12-05T02:47:27.470Z,6.75
2022-12-05T02:50:00.750Z,6.90
2022-12-05T02:52:35.554Z,6.63
2022-12-05T02:55:10.135Z,7.82
2022-12-05T02:57:46.556Z,6.72
2022-12-05T03:00:20.053Z,6.55
2022-12-05T03:02:59.427Z,7.18
2022-12-05T03:05:40.028Z,6.55
2022-12-05T03:08:19.643Z,7.28
2022-12-05T03:10:54.545Z,6.85
2022-12-05T03:13:30.452Z,6.43
2022-12-05T03:16:08.980Z,6.47
2022-12-05T03:18:48.397Z,7.20
2022-12-05T03:21:31.018Z,6.78
2022-12-05T03:24:06.721Z,6.82
2022-12-05T03:26:49.622Z,6.78
2022-12-05T03:29:30.159Z,5.95
2022-12-05T03:32:09.425Z,5.97
2022-12-05T03:34:56.450Z,6.70
2022-12-05T03:37:36.175Z,6.03
2022-12-05T03:40:16.302Z,5.97
2022-12-05T03:42:58.758Z,6.50
2022-12-05T03:45:39.423Z,6.45
2022-12-05T03:48:19.990Z,6.28
2022-12-05T03:50:55.282Z,6.43
2022-12-05T03:53:32.915Z,5.55
2022-12-05T03:56:09.751Z,5.28
2022-12-05T03:58:47.525Z,5.45
2022-12-05T04:01:23.580Z,5.22
2022-12-05T04:03:59.848Z,5.30
2022-12-05T04:06:37.591Z,5.32
2022-12-05T04:09:17.038Z,5.15
2022-12-05T04:11:56.164Z,4.40
2022-12-05T04:14:34.064Z,4.72
2022-12-05T04:17:09.344Z,4.25
2022-12-05T04:20:04.655Z,4.45
2022-12-05T04:22:40.109Z,4.40
2022-12-05T04:25:39.555Z,4.07
2022-12-05T04:28:26.965Z,4.00
2022-12-05T04:31:06.466Z,3.75
2022-12-05T04:33:43.238Z,4.03
2022-12-05T04:36:20.468Z,3.95
2022-12-05T04:39:00.216Z,3.05
2022-12-05T04:41:38.077Z,3.95
2022-12-05T04:44:13.788Z,3.05
2022-12-05T04:46:49.499Z,3.65
2022-12-05T04:49:28.187Z,3.08
2022-12-05T04:52:05.944Z,4.18
2022-12-05T04:54:44.431Z,3.35
2022-12-05T04:57:20.396Z,3.50
2022-12-05T04:59:53.394Z,3.15
2022-12-05T05:02:34.446Z,3.30
2022-12-05T05:05:14.124Z,3.38
2022-12-05T05:07:49.151Z,3.17
2022-12-05T05:10:32.182Z,3.30
2022-12-05T05:13:06.007Z,3.15
2022-12-05T05:15:38.814Z,3.05
2022-12-05T05:18:11.612Z,3.08
2022-12-05T05:20:44.415Z,2.75
2022-12-05T05:23:17.265Z,3.47
2022-12-05T05:25:55.112Z,3.13
2022-12-05T05:28:27.868Z,3.22
2022-12-05T05:31:03.446Z,3.00
2022-12-05T05:33:36.464Z,3.42
2022-12-05T05:36:11.929Z,3.15
2022-12-05T05:38:47.459Z,3.55
2022-12-05T05:41:23.966Z,3.25
2022-12-05T05:43:57.356Z,3.90
2022-12-05T05:46:32.296Z,2.97
2022-12-05T05:49:06.386Z,3.35
2022-12-05T05:51:39.251Z,3.45
2022-12-05T05:54:11.979Z,3.00
2022-12-05T05:56:46.174Z,3.78
2022-12-05T05:59:18.920Z,3.33
2022-12-05T06:01:51.742Z,2.90
2022-12-05T06:04:24.629Z,2.70
2022-12-05T06:06:57.475Z,2.38
2022-12-05T06:09:30.262Z,2.50
2022-12-05T06:12:04.778Z,2.33
2022-12-05T06:14:37.547Z,2.40
2022-12-05T06:17:10.329Z,2.78
2022-12-05T06:19:43.071Z,3.03
2022-12-05T06:22:15.821Z,2.95
2022-12-05T06:24:48.594Z,3.35
2022-12-05T06:27:22.837Z,3.17
2022-12-05T06:29:55.849Z,3.10
2022-12-05T06:32:29.860Z,3.25
2022-12-05T06:35:07.917Z,2.80
2022-12-05T06:37:40.787Z,2.40
2022-12-05T06:40:14.148Z,2.83
2022-12-05T06:42:48.365Z,2.38
2022-12-05T06:45:21.045Z,2.20
2022-12-05T06:47:54.163Z,2.47
2022-12-05T06:50:27.008Z,2.10
2022-12-05T06:52:59.764Z,2.20
2022-12-05T06:55:32.511Z,2.13
2022-12-05T06:58:06.694Z,1.92
2022-12-05T07:01:03.063Z,2.13
2022-12-05T07:03:35.909Z,1.98
2022-12-05T07:06:09.422Z,2.00
2022-12-05T07:08:43.663Z,1.73
2022-12-05T07:11:16.421Z,1.80
2022-12-05T07:13:50.589Z,1.80
2022-12-05T07:16:23.435Z,1.63
2022-12-05T07:18:56.378Z,1.70
2022-12-05T07:21:29.290Z,1.70
2022-12-05T07:24:02.126Z,1.77
2022-12-05T07:26:35.016Z,1.90
2022-12-05T07:29:09.346Z,1.80
2022-12-05T07:31:42.363Z,1.45
2022-12-05T07:34:15.307Z,1.48
2022-12-05T07:36:48.344Z,1.67
2022-12-05T07:39:21.599Z,1.42
2022-12-05T07:41:54.446Z,1.63
2022-12-05T07:44:28.736Z,1.60
2022-12-05T07:47:01.669Z,1.33
2022-12-05T07:49:34.528Z,1.45
2022-12-05T07:52:07.399Z,1.42
2022-12-05T07:54:40.122Z,1.30
2022-12-05T07:57:12.897Z,1.50
2022-12-05T07:59:47.086Z,1.33
2022-12-05T08:02:20.305Z,1.58
2022-12-05T08:04:53.184Z,1.13
2022-12-05T08:07:25.960Z,1.50
2022-12-05T08:09:59.028Z,1.70
2022-12-05T08:12:32.217Z,1.75
2022-12-05T08:15:07.980Z,1.67
2022-12-05T08:17:40.847Z,1.83
2022-12-05T08:20:14.739Z,1.63
2022-12-05T08:22:47.771Z,1.50
2022-12-05T08:25:20.663Z,1.70
2022-12-05T08:27:53.389Z,1.98
2022-12-05T08:30:27.575Z,1.42
2022-12-05T08:33:00.488Z,1.20
2022-12-05T08:35:33.724Z,1.38
2022-12-05T08:38:06.796Z,1.40
2022-12-05T08:40:39.548Z,1.65
2022-12-05T08:43:12.311Z,1.30
2022-12-05T08:45:52.138Z,2.30
2022-12-05T08:48:29.296Z,2.05
2022-12-05T08:51:07.333Z,2.20
2022-12-05T08:53:44.432Z,1.58
2022-12-05T08:56:20.841Z,1.63
2022-12-05T08:59:04.728Z,1.55
2022-12-05T09:01:40.686Z,1.73
2022-12-05T09:04:13.611Z,1.95
2022-12-05T09:06:46.570Z,1.73
2022-12-05T09:09:19.445Z,1.75
2022-12-05T09:11:52.633Z,1.73
2022-12-05T09:14:25.512Z,1.83
2022-12-05T09:17:01.073Z,1.55
2022-12-05T09:19:33.904Z,1.90
2022-12-05T09:22:07.003Z,1.75
2022-12-05T09:24:39.822Z,1.50
2022-12-05T09:27:12.626Z,1.70
2022-12-05T09:29:45.511Z,1.70
2022-12-05T09:32:19.821Z,1.80
2022-12-05T09:34:52.831Z,2.00
2022-12-05T09:37:40.907Z,2.10
2022-12-05T09:40:18.063Z,2.55
2022-12-05T09:43:04.292Z,1.77
2022-12-05T09:45:39.039Z,1.70
2022-12-05T09:48:16.654Z,1.70
2022-12-05T09:51:10.136Z,1.75
2022-12-05T09:53:44.811Z,1.33
2022-12-05T09:56:25.487Z,1.50
2022-12-05T09:59:00.809Z,1.67
2022-12-05T10:01:42.081Z,1.92
2022-12-05T10:05:00.163Z,1.60
2022-12-05T10:07:39.057Z,1.85
2022-12-05T10:10:30.097Z,1.83
2022-12-05T10:13:22.845Z,1.42
2022-12-05T10:16:01.609Z,1.80
2022-12-05T10:18:40.504Z,1.52
2022-12-05T10:21:20.970Z,1.27
2022-12-05T10:23:59.433Z,1.58
2022-12-05T10:26:37.260Z,2.03
2022-12-05T10:29:21.625Z,1.50
2022-12-05T10:32:02.564Z,1.70
2022-12-05T10:34:39.563Z,1.70
2022-12-05T10:37:17.808Z,1.80
2022-12-05T10:39:52.123Z,1.55
2022-12-05T10:42:30.553Z,1.80
2022-12-05T10:45:06.993Z,1.70
2022-12-05T10:47:39.851Z,1.60
2022-12-05T10:50:23.571Z,1.75
2022-12-05T10:53:01.695Z,1.80
2022-12-05T10:55:54.736Z,1.50
2022-12-05T10:58:34.390Z,1.50
2022-12-05T11:01:11.361Z,1.90
2022-12-05T11:03:45.021Z,1.90
2022-12-05T11:06:20.025Z,2.00
2022-12-05T11:09:05.399Z,1.90
2022-12-05T11:11:38.517Z,2.10
2022-12-05T11:14:23.490Z,1.98
2022-12-05T11:16:59.396Z,1.60
2022-12-05T11:19:34.549Z,1.77
2022-12-05T11:22:08.030Z,1.88
2022-12-05T11:24:42.241Z,1.75
2022-12-05T11:27:29.769Z,1.58
2022-12-05T11:30:05.938Z,1.65
2022-12-05T11:32:38.755Z,1.50
2022-12-05T11:35:24.276Z,1.60
2022-12-05T11:38:01.460Z,1.35
2022-12-05T11:40:40.644Z,1.30
2022-12-05T11:43:37.975Z,1.38
2022-12-05T11:46:26.855Z,1.52
2022-12-05T11:49:15.481Z,1.42
2022-12-05T11:51:56.627Z,1.35
2022-12-05T11:58:01.057Z,1.42
2022-12-05T12:00:40.461Z,1.42
2022-12-05T12:03:51.244Z,1.60
2022-12-05T12:06:33.101Z,1.70
2022-12-05T12:11:55.602Z,1.50
2022-12-05T12:14:38.809Z,1.48
2022-12-05T12:17:22.144Z,1.38
2022-12-05T12:20:16.025Z,1.50
2022-12-05T12:23:02.722Z,1.25
2022-12-05T12:25:44.053Z,1.10
2022-12-05T12:28:32.345Z,1.40
2022-12-05T12:31:30.241Z,1.10
2022-12-05T12:34:13.234Z,1.10
2022-12-05T12:36:49.883Z,1.23
2022-12-05T12:39:36.044Z,0.93
2022-12-05T12:42:21.796Z,1.15
2022-12-05T12:45:33.464Z,1.10
2022-12-05T12:48:21.398Z,1.00
2022-12-05T12:50:55.890Z,0.90
2022-12-05T12:53:57.377Z,1.10
2022-12-05T12:56:39.485Z,1.02
2022-12-05T12:59:31.035Z,1.20
2022-12-05T13:02:12.985Z,0.95
2022-12-05T13:07:31.378Z,1.10
2022-12-05T13:10:13.831Z,1.73
2022-12-05T13:12:47.847Z,1.60
2022-12-05T13:15:29.442Z,1.33
2022-12-05T13:18:04.561Z,1.40
2022-12-05T13:20:40.641Z,1.10
2022-12-05T13:23:16.966Z,1.10
2022-12-05T13:25:50.870Z,1.40
2022-12-05T13:28:42.049Z,1.27
2022-12-05T13:31:17.166Z,1.02
2022-12-05T13:33:52.336Z,1.48
2022-12-05T13:36:44.254Z,1.40
2022-12-05T13:39:40.105Z,1.20
2022-12-05T13:42:24.467Z,1.50
2022-12-05T13:45:06.797Z,1.48
2022-12-05T13:47:53.169Z,1.35
2022-12-05T13:50:35.444Z,1.10
2022-12-05T13:53:28.492Z,1.17
2022-12-05T13:56:03.690Z,1.40
2022-12-05T13:58:54.729Z,1.40
2022-12-05T14:01:55.746Z,1.33
2022-12-05T14:04:54.179Z,1.40
2022-12-05T14:07:42.012Z,1.25
2022-12-05T14:10:18.063Z,1.30
2022-12-05T14:12:53.939Z,1.58
2022-12-05T14:15:35.436Z,1.40
2022-12-05T14:18:15.790Z,1.40
2022-12-05T14:20:57.346Z,1.50
2022-12-05T14:23:52.169Z,1.50
2022-12-05T14:26:48.928Z,1.50
2022-12-05T14:29:39.892Z,1.40
2022-12-05T14:32:23.799Z,1.42
2022-12-05T14:34:59.953Z,1.95
2022-12-05T14:37:37.530Z,1.40
2022-12-05T14:40:21.989Z,1.70
2022-12-05T14:42:59.633Z,1.50
2022-12-05T14:45:36.443Z,1.50
2022-12-05T14:48:28.930Z,1.40
2022-12-05T14:51:02.573Z,1.42
2022-12-05T14:53:38.865Z,1.48
2022-12-05T14:56:22.459Z,1.48
2022-12-05T14:59:01.580Z,1.30
2022-12-05T15:01:43.264Z,1.45
2022-12-05T15:04:21.825Z,1.58
2022-12-05T15:06:57.916Z,1.30
2022-12-05T15:09:42.676Z,1.48
2022-12-05T15:12:19.321Z,1.50
2022-12-05T15:15:04.366Z,1.50
2022-12-05T15:17:47.298Z,1.40
2022-12-05T15:20:33.213Z,1.40
2022-12-05T15:23:42.663Z,1.67
2022-12-05T15:26:46.183Z,1.33
2022-12-05T15:29:19.237Z,1.60
2022-12-05T15:31:57.213Z,1.25
2022-12-05T15:34:33.486Z,1.70
2022-12-05T15:37:14.450Z,1.77
2022-12-05T15:39:58.790Z,1.93
2022-12-05T15:42:36.684Z,1.48
2022-12-05T15:45:23.745Z,1.73
2022-12-05T15:48:13.482Z,1.92
2022-12-05T15:50:51.748Z,1.88
2022-12-05T15:53:32.557Z,1.67
2022-12-05T15:56:10.550Z,1.73
2022-12-05T15:58:47.538Z,2.60
2022-12-05T16:01:22.900Z,1.77
2022-12-05T16:04:01.921Z,2.45
2022-12-05T16:06:40.350Z,2.17
2022-12-05T16:09:18.649Z,1.90
2022-12-05T16:11:54.107Z,1.95
2022-12-05T16:14:58.317Z,2.10
2022-12-05T16:17:25.210Z,2.10
2022-12-05T16:20:13.818Z,2.03
2022-12-05T16:22:49.748Z,1.85
2022-12-05T16:25:26.136Z,1.80
2022-12-05T16:28:02.752Z,1.73
2022-12-05T16:30:37.026Z,1.98
2022-12-05T16:33:16.520Z,2.50
2022-12-05T16:35:51.851Z,2.58
2022-12-05T16:38:26.921Z,2.60
2022-12-05T16:41:02.120Z,2.65
2022-12-05T16:43:45.232Z,2.58
2022-12-05T16:46:43.786Z,2.22
2022-12-05T16:49:41.314Z,2.72
2022-12-05T16:52:21.370Z,2.85
2022-12-05T16:54:55.009Z,4.25
2022-12-05T16:57:27.916Z,4.45
2022-12-05T17:00:01.630Z,3.85
2022-12-05T17:02:34.555Z,3.22
2022-12-05T17:05:14.267Z,2.53
2022-12-05T17:07:48.903Z,2.67
2022-12-05T17:10:21.793Z,2.70
2022-12-05T17:12:54.864Z,2.90
2022-12-05T17:15:28.200Z,3.20
2022-12-05T17:18:02.245Z,3.08
2022-12-05T17:20:36.413Z,3.40
2022-12-05T17:23:14.889Z,3.13
2022-12-05T17:25:51.336Z,3.30
2022-12-05T17:28:25.187Z,2.58
2022-12-05T17:30:58.390Z,2.38
2022-12-05T17:33:31.611Z,2.72
2022-12-05T17:36:04.807Z,2.67
2022-12-05T17:38:39.154Z,2.83
2022-12-05T17:41:17.754Z,2.83
2022-12-05T17:43:51.443Z,2.60
2022-12-05T17:46:24.877Z,3.35
2022-12-05T17:48:58.032Z,2.75
2022-12-05T17:51:31.324Z,2.50
2022-12-05T17:54:06.417Z,3.30
2022-12-05T17:56:39.308Z,3.15
2022-12-05T17:59:12.188Z,3.88
2022-12-05T18:01:44.936Z,3.33
2022-12-05T18:04:22.962Z,3.30
2022-12-05T18:06:56.239Z,3.00
2022-12-05T18:09:31.219Z,2.60
2022-12-05T18:12:04.600Z,3.58
2022-12-05T18:14:37.578Z,2.55
2022-12-05T18:17:10.918Z,2.92
2022-12-05T18:19:44.320Z,3.95
2022-12-05T18:22:20.264Z,4.80
2022-12-05T18:24:57.444Z,4.65
2022-12-05T18:27:32.079Z,4.45
2022-12-05T18:30:06.183Z,4.93
2022-12-05T18:32:39.001Z,4.53
2022-12-05T18:35:13.214Z,4.80
2022-12-05T18:37:46.275Z,3.75
2022-12-05T18:40:20.829Z,3.50
2022-12-05T18:42:53.836Z,3.03
2022-12-05T18:45:27.152Z,2.80
2022-12-05T18:48:16.359Z,3.30
2022-12-05T18:50:53.873Z,2.72
2022-12-05T18:53:27.048Z,3.28
2022-12-05T18:56:24.716Z,3.70
2022-12-05T18:59:02.183Z,3.60
2022-12-05T19:01:37.412Z,3.55
2022-12-05T19:04:13.482Z,3.03
2022-12-05T19:06:50.768Z,3.45
2022-12-05T19:09:25.961Z,2.75
2022-12-05T19:12:00.988Z,2.58
2022-12-05T19:14:35.215Z,2.95
2022-12-05T19:17:08.407Z,2.85
2022-12-05T19:19:41.598Z,2.90
2022-12-05T19:22:14.826Z,2.70
2022-12-05T19:24:47.800Z,2.67
2022-12-05T19:27:22.016Z,2.60
2022-12-05T19:29:55.381Z,3.20
2022-12-05T19:32:28.357Z,3.50
2022-12-05T19:35:01.321Z,3.55
2022-12-05T19:37:34.366Z,2.97
2022-12-05T19:40:08.940Z,3.50
2022-12-05T19:42:43.262Z,2.85
2022-12-05T19:45:18.030Z,3.03
2022-12-05T19:47:52.682Z,3.17
2022-12-05T19:50:25.901Z,3.38
2022-12-05T19:52:59.166Z,3.38
2022-12-05T19:55:32.374Z,3.33
2022-12-05T19:58:07.519Z,3.50
2022-12-05T20:00:41.485Z,3.28
2022-12-05T20:03:14.424Z,3.10
2022-12-05T20:05:57.164Z,2.83
2022-12-05T20:08:30.673Z,3.17
2022-12-05T20:11:08.334Z,3.72
2022-12-05T20:13:47.664Z,3.70
2022-12-05T20:16:23.030Z,4.10
2022-12-05T20:18:58.069Z,3.58
2022-12-05T20:21:33.718Z,3.17
2022-12-05T20:24:07.672Z,3.97
2022-12-05T20:26:42.594Z,3.28
2022-12-05T20:29:17.136Z,3.72
2022-12-05T20:31:56.503Z,4.18
2022-12-05T20:34:29.509Z,4.47
2022-12-05T20:37:02.392Z,4.35
2022-12-05T20:39:35.695Z,4.75
2022-12-05T20:42:08.574Z,5.22
2022-12-05T20:44:42.801Z,4.82
2022-12-05T20:47:15.760Z,4.22
2022-12-05T20:49:48.604Z,3.90
2022-12-05T20:52:21.713Z,3.70
2022-12-05T20:54:57.107Z,3.70
2022-12-05T20:57:29.935Z,3.47
2022-12-05T21:00:05.404Z,3.17
2022-12-05T21:02:38.280Z,3.85
2022-12-05T21:05:13.134Z,3.03
2022-12-05T21:07:46.116Z,3.38
2022-12-05T21:10:19.259Z,3.45
2022-12-05T21:12:54.195Z,3.60
2022-12-05T21:15:28.568Z,3.30
2022-12-05T21:18:01.619Z,3.20
2022-12-05T21:20:40.463Z,3.60
2022-12-05T21:23:15.314Z,3.38
2022-12-05T21:25:48.169Z,3.30
2022-12-05T21:28:21.329Z,3.42
2022-12-05T21:30:55.840Z,2.83
2022-12-05T21:33:29.051Z,3.00
2022-12-05T21:36:02.146Z,3.13
2022-12-05T21:38:35.082Z,3.05
2022-12-05T21:41:08.240Z,2.78
2022-12-05T21:43:41.275Z,3.05
2022-12-05T21:46:16.068Z,2.97
2022-12-05T21:48:48.913Z,3.50
2022-12-05T21:51:22.815Z,3.35
2022-12-05T21:53:56.906Z,3.35
2022-12-05T21:56:31.230Z,2.75
2022-12-05T21:59:05.722Z,3.20
2022-12-05T22:01:40.195Z,3.03
2022-12-05T22:04:13.284Z,2.90
2022-12-05T22:06:46.195Z,3.08
2022-12-05T22:09:19.089Z,2.95
2022-12-05T22:11:52.271Z,3.08
2022-12-05T22:14:27.489Z,3.40
2022-12-05T22:17:01.946Z,3.22
2022-12-05T22:19:35.336Z,3.20
2022-12-05T22:22:08.469Z,3.30
2022-12-05T22:24:41.349Z,3.40
2022-12-05T22:27:14.468Z,3.22
2022-12-05T22:29:52.617Z,3.38
2022-12-05T22:32:27.465Z,3.20
2022-12-05T22:35:03.775Z,3.47
2022-12-05T22:37:37.623Z,3.65
2022-12-05T22:40:11.126Z,3.92
2022-12-05T22:42:44.173Z,3.53
2022-12-05T22:45:17.323Z,3.47
2022-12-05T22:47:51.857Z,3.53
2022-12-05T22:50:26.148Z,3.60
2022-12-05T22:52:58.962Z,3.53
2022-12-05T22:55:32.594Z,3.50
2022-12-05T22:58:05.894Z,4.00
2022-12-05T23:00:38.915Z,4.05
2022-12-05T23:03:15.185Z,3.65
2022-12-05T23:05:48.408Z,3.75
2022-12-05T23:08:21.381Z,3.35
2022-12-05T23:10:58.463Z,3.90
2022-12-05T23:13:33.433Z,3.45
2022-12-05T23:16:08.284Z,3.25
2022-12-05T23:18:49.824Z,3.25
2022-12-05T23:21:24.543Z,3.53
2022-12-05T23:23:59.769Z,3.63
2022-12-05T23:26:35.526Z,3.20
2022-12-05T23:29:08.742Z,3.53
2022-12-05T23:31:42.206Z,3.38
2022-12-05T23:34:16.648Z,3.67
2022-12-05T23:36:49.591Z,3.15
2022-12-05T23:39:22.626Z,3.33
2022-12-05T23:41:55.707Z,3.63
2022-12-05T23:44:28.648Z,3.22
2022-12-05T23:47:01.968Z,3.47
2022-12-05T23:49:36.599Z,3.22
2022-12-05T23:52:11.152Z,3.33
2022-12-05T23:54:44.388Z,3.15
2022-12-05T23:57:17.994Z,3.60
2022-12-05T23:59:51.315Z,3.67
